Sunny Hill, Illinois
Current Conditions -  °F | °C
As of 5:52 PM on Sunday 25 Jan 2015 (Local Time) from KMLI Reporting Station
Scattered Clouds Scattered Clouds  
Wind Chill: 15°   Ceiling: Unl
Heat Index: 27°   Visibility: 10mi
Dew Point: 17°   Wind: 15mph
Humidity: 66%   Direction: 10°N
Pressure: 30"   Gusts: 20mph
Location:  41.3669°N, 90.3966°W
Report Text: KMLI 252352Z 01013G17KT 10SM SCT055 M03/M08 A3000 RMK AO2 SLP163 60000 T10281083 11011 21028 51040 $
Loading
Personal Weather Stations






























Interactive Weather Map New forecast layout! Learn more

10-Day Weather Forecast

Advertisements
Track Severe Weather on mobile